Albanel, Canada
Current Conditions -  °F | °C
As of 6:09 PM on Saturday 25 Oct 2014 (Local Time) from CYRJ Reporting Station
Rain Showers Rain Showers  
Wind Chill: 50°   Ceiling: 5000
Heat Index: 50°   Visibility: 25mi
Dew Point: 39°   Wind: 6mph
Humidity: 66%   Direction: 190°S
Pressure: 29.43"   Gusts: NA
Location:  48.87°N, 72.42°W
Report Text: CYRJ 252209Z 19005KT 25SM -SHRA BKN050 OVC090 10/04 A2943 RMK SC6AC2 SLP972 DENSITY ALT 600FT
Loading
Personal Weather Stations






























Interactive Weather Map
Tropical Storm Tracking
New forecast layout! Learn more

10-Day Weather Forecast

Advertisements
Track Severe Weather on mobile